Time;durP1;ratioP1;P1;durP2;ratioP2;P2;SDS_P1;SDS_P2;PMS_P1;PMS_P2;Temp;Humidity;BMP_temperature;BMP_pressure;BME280_temperature;BME280_humidity;BME280_pressure;Samples;Min_cycle;Max_cycle;Signal;HPM_P1;HPM_P2
2021/05/12 00:05:17;;;;;;;30.25;24.85;;;13.00;99.90;;;;;;12202792;29;20048;-80
2021/05/12 00:11:19;;;;;;;32.28;24.88;;;13.10;99.90;;;;;;12198530;28;21030;-80
2021/05/12 00:17:21;;;;;;;32.97;25.27;;;13.10;99.90;;;;;;12199908;28;20191;-80
2021/05/12 00:23:27;;;;;;;34.20;26.35;;;13.00;99.90;;;;;;12194484;29;20086;-80
2021/05/12 00:29:28;;;;;;;31.83;24.95;;;13.10;99.90;;;;;;12204287;28;20079;-80
2021/05/12 00:35:30;;;;;;;34.33;26.10;;;12.90;99.90;;;;;;12164838;28;20056;-80
2021/05/12 00:41:36;;;;;;;35.95;26.48;;;12.90;99.90;;;;;;12183734;28;20044;-79
2021/05/12 00:47:38;;;;;;;29.85;23.35;;;12.90;99.90;;;;;;12205597;28;20127;-79
2021/05/12 00:53:40;;;;;;;36.47;25.70;;;13.00;99.90;;;;;;12202441;28;20631;-80
2021/05/12 00:59:44;;;;;;;35.47;26.40;;;13.00;99.90;;;;;;12203926;28;20052;-80
2021/05/12 01:05:48;;;;;;;33.63;26.92;;;12.90;99.90;;;;;;12205556;28;20071;-79
2021/05/12 01:11:50;;;;;;;36.83;26.85;;;13.00;99.90;;;;;;12202938;28;20771;-80
2021/05/12 01:17:53;;;;;;;32.47;25.13;;;13.00;99.90;;;;;;12204101;28;20043;-79
2021/05/12 01:23:54;;;;;;;34.33;23.55;;;13.10;99.90;;;;;;12198888;28;20074;-79
2021/05/12 01:29:56;;;;;;;31.85;24.05;;;13.00;99.90;;;;;;12212085;28;20170;-79
2021/05/12 01:35:59;;;;;;;34.22;24.45;;;13.00;99.90;;;;;;12205705;28;20048;-79
2021/05/12 01:42:01;;;;;;;31.27;22.80;;;12.80;99.90;;;;;;12196808;28;20074;-79
2021/05/12 01:48:07;;;;;;;32.72;23.50;;;12.80;99.90;;;;;;12212311;28;20140;-79
2021/05/12 01:54:11;;;;;;;38.15;24.92;;;12.90;99.90;;;;;;12230512;28;20919;-79
2021/05/12 02:00:27;;;;;;;29.63;23.03;;;12.80;99.90;;;;;;12201288;28;20079;-80
2021/05/12 02:06:29;;;;;;;31.10;24.75;;;12.90;99.90;;;;;;12216507;28;20036;-80
2021/05/12 02:12:31;;;;;;;32.17;25.08;;;12.90;99.90;;;;;;12209819;28;20078;-80
2021/05/12 02:18:33;;;;;;;35.20;25.20;;;13.00;99.90;;;;;;12207689;28;20083;-79
2021/05/12 02:24:35;;;;;;;30.08;25.08;;;13.00;99.90;;;;;;12207347;28;20063;-80
2021/05/12 02:30:38;;;;;;;33.42;25.95;;;13.00;99.90;;;;;;12212905;28;20082;-79
2021/05/12 02:36:40;;;;;;;34.90;25.52;;;13.00;99.90;;;;;;12213207;28;20139;-79
2021/05/12 02:42:42;;;;;;;31.85;24.75;;;13.00;99.90;;;;;;12206841;28;20639;-79
2021/05/12 02:48:44;;;;;;;33.78;24.73;;;12.90;99.90;;;;;;12205661;28;20090;-80
2021/05/12 02:54:46;;;;;;;33.05;25.58;;;12.90;99.90;;;;;;12202235;28;20083;-80
2021/05/12 03:00:48;;;;;;;34.00;24.85;;;12.90;99.90;;;;;;12205695;28;20813;-79
2021/05/12 03:06:50;;;;;;;36.95;27.70;;;12.90;99.90;;;;;;12209684;28;20082;-79
2021/05/12 03:12:53;;;;;;;35.08;25.63;;;12.80;99.90;;;;;;12216726;28;20048;-80
2021/05/12 03:18:55;;;;;;;33.85;24.83;;;12.80;99.90;;;;;;12209207;28;20519;-80
2021/05/12 03:24:57;;;;;;;32.78;24.20;;;12.90;99.90;;;;;;12214088;28;20078;-80
2021/05/12 03:30:59;;;;;;;34.83;23.55;;;12.90;99.90;;;;;;12212665;28;20127;-80
2021/05/12 03:37:02;;;;;;;30.17;22.85;;;12.90;99.90;;;;;;12228073;28;20095;-79
2021/05/12 03:43:04;;;;;;;31.38;22.60;;;12.80;99.90;;;;;;12209711;28;20511;-79
2021/05/12 03:49:06;;;;;;;28.83;20.65;;;12.80;99.90;;;;;;12220433;28;20083;-79
2021/05/12 03:55:09;;;;;;;29.25;20.17;;;12.80;99.90;;;;;;12205191;28;20151;-79
2021/05/12 04:01:12;;;;;;;26.88;20.65;;;12.80;99.90;;;;;;12206950;28;20432;-79
2021/05/12 04:07:13;;;;;;;27.63;20.00;;;12.70;99.90;;;;;;12210372;28;20453;-80
2021/05/12 04:13:16;;;;;;;27.80;20.08;;;12.70;99.90;;;;;;12220929;28;20051;-79
2021/05/12 04:19:18;;;;;;;30.02;21.45;;;12.80;99.90;;;;;;12212455;28;20429;-79
2021/05/12 04:25:22;;;;;;;29.70;22.13;;;12.70;99.90;;;;;;12214887;28;20063;-79
2021/05/12 04:31:24;;;;;;;29.95;21.48;;;12.70;99.90;;;;;;12226713;28;20067;-79
2021/05/12 04:37:26;;;;;;;25.13;19.05;;;12.70;99.90;;;;;;12211166;28;20516;-79
2021/05/12 04:43:28;;;;;;;26.05;18.33;;;12.80;99.90;;;;;;12227319;28;20036;-79
2021/05/12 04:49:30;;;;;;;23.33;18.67;;;12.70;99.90;;;;;;12266307;28;20052;-80
2021/05/12 04:55:32;;;;;;;24.52;18.88;;;12.70;99.90;;;;;;12210300;28;20135;-80
2021/05/12 05:01:33;;;;;;;23.27;18.25;;;12.80;99.90;;;;;;12205575;28;20143;-79
2021/05/12 05:07:36;;;;;;;23.42;18.90;;;12.80;99.90;;;;;;12215656;28;20131;-79
2021/05/12 05:13:38;;;;;;;21.90;17.73;;;12.80;99.90;;;;;;12203312;28;20080;-80
2021/05/12 05:19:39;;;;;;;22.88;17.58;;;12.80;99.90;;;;;;12200975;28;20150;-79
2021/05/12 05:25:45;;;;;;;25.42;18.42;;;12.90;99.90;;;;;;12206590;28;20040;-79
2021/05/12 05:31:48;;;;;;;21.53;17.63;;;12.90;99.90;;;;;;12209459;28;20037;-80
2021/05/12 05:37:51;;;;;;;21.63;17.75;;;13.00;99.90;;;;;;12207915;28;20087;-80
2021/05/12 05:43:53;;;;;;;22.65;17.70;;;12.90;99.90;;;;;;12201305;28;20056;-79
2021/05/12 05:49:54;;;;;;;23.20;17.40;;;12.90;99.90;;;;;;12209984;28;20079;-80
2021/05/12 05:55:56;;;;;;;24.20;18.50;;;12.80;99.90;;;;;;12205483;28;20131;-80
2021/05/12 06:01:58;;;;;;;24.55;18.55;;;12.90;99.90;;;;;;12207257;28;21607;-80
2021/05/12 06:08:01;;;;;;;25.85;19.15;;;13.00;99.90;;;;;;12212601;28;20055;-80
2021/05/12 06:14:03;;;;;;;25.83;21.83;;;13.00;99.90;;;;;;12214762;28;20111;-80
2021/05/12 06:20:06;;;;;;;29.23;21.20;;;13.00;99.90;;;;;;12209991;28;20047;-80
2021/05/12 06:26:16;;;;;;;29.30;21.88;;;13.00;99.90;;;;;;12215752;28;20496;-82
2021/05/12 06:32:18;;;;;;;29.10;21.27;;;13.00;99.90;;;;;;12208943;28;20135;-81
2021/05/12 06:38:19;;;;;;;26.60;21.25;;;12.90;99.90;;;;;;12205567;28;20542;-80
2021/05/12 06:44:23;;;;;;;28.05;21.60;;;12.90;99.90;;;;;;12206746;28;20127;-80
2021/05/12 06:50:25;;;;;;;30.17;20.88;;;13.30;99.90;;;;;;12203196;28;20048;-80
2021/05/12 06:56:27;;;;;;;26.88;20.35;;;13.20;99.90;;;;;;12153022;28;20162;-79
2021/05/12 07:02:29;;;;;;;30.10;19.27;;;13.20;99.90;;;;;;12156393;29;20060;-80
2021/05/12 07:08:34;;;;;;;24.55;18.60;;;13.30;99.90;;;;;;12162967;28;20123;-80
2021/05/12 07:14:37;;;;;;;21.17;17.95;;;13.40;99.90;;;;;;12202887;28;20125;-80
2021/05/12 07:20:39;;;;;;;23.60;18.70;;;13.30;99.90;;;;;;12203608;29;20514;-80
2021/05/12 07:26:41;;;;;;;32.85;18.17;;;13.40;99.90;;;;;;12205572;28;20108;-80
2021/05/12 07:32:45;;;;;;;21.35;16.80;;;13.40;99.90;;;;;;12204822;29;20115;-80
2021/05/12 07:38:47;;;;;;;22.48;16.88;;;13.40;99.90;;;;;;12206828;29;20147;-80
2021/05/12 07:44:49;;;;;;;22.80;17.40;;;13.50;99.90;;;;;;12202640;29;20044;-79
2021/05/12 07:50:51;;;;;;;20.58;15.95;;;13.40;99.90;;;;;;12200352;29;20075;-80
2021/05/12 07:56:52;;;;;;;20.50;16.17;;;13.80;99.90;;;;;;12198845;28;20064;-80
2021/05/12 08:02:55;;;;;;;21.52;17.42;;;13.90;99.90;;;;;;12200531;28;20059;-80
2021/05/12 08:08:58;;;;;;;21.02;17.02;;;14.10;99.90;;;;;;12231409;28;20044;-80
2021/05/12 08:15:00;;;;;;;20.05;16.20;;;14.10;99.90;;;;;;12206938;28;20459;-80
2021/05/12 08:21:03;;;;;;;17.83;12.98;;;14.50;99.90;;;;;;12195056;28;20176;-80
2021/05/12 08:27:05;;;;;;;16.70;13.05;;;14.60;99.90;;;;;;12176321;28;20059;-80
2021/05/12 08:33:08;;;;;;;16.92;13.30;;;15.00;99.90;;;;;;12199675;28;20177;-81
2021/05/12 08:39:10;;;;;;;17.65;12.85;;;15.10;99.90;;;;;;12212366;28;20087;-80
2021/05/12 08:45:13;;;;;;;15.90;12.90;;;15.10;99.90;;;;;;12201956;28;20043;-81
2021/05/12 08:51:16;;;;;;;12.30;10.18;;;15.10;99.90;;;;;;12216311;28;20048;-81
2021/05/12 08:57:18;;;;;;;14.60;9.90;;;15.10;99.90;;;;;;12219242;28;20084;-80
2021/05/12 09:03:20;;;;;;;13.27;10.52;;;14.70;99.90;;;;;;12178414;28;20092;-80
2021/05/12 09:09:24;;;;;;;13.43;10.07;;;14.90;99.90;;;;;;12163447;28;20055;-80
2021/05/12 09:15:28;;;;;;;14.07;9.80;;;15.30;99.90;;;;;;12166584;28;20049;-81
2021/05/12 09:21:48;;;;;;;12.82;8.50;;;15.50;99.90;;;;;;12162369;28;20044;-81
2021/05/12 09:27:51;;;;;;;11.52;9.15;;;15.40;99.90;;;;;;12162926;28;20570;-81
2021/05/12 09:33:59;;;;;;;14.48;10.02;;;15.30;99.90;;;;;;12163864;28;20049;-81
2021/05/12 09:40:09;;;;;;;12.73;7.80;;;15.50;99.90;;;;;;12153443;28;20224;-81
2021/05/12 09:46:24;;;;;;;12.77;9.55;;;15.80;99.90;;;;;;12178139;29;20059;-82
2021/05/12 09:52:28;;;;;;;11.02;7.85;;;16.40;99.90;;;;;;12148846;29;20053;-80
2021/05/12 09:58:29;;;;;;;11.87;8.33;;;16.70;99.90;;;;;;12143508;28;20516;-82
2021/05/12 10:04:41;;;;;;;10.25;7.38;;;16.90;99.90;;;;;;12185942;28;20049;-80
2021/05/12 10:10:44;;;;;;;8.55;6.82;;;17.20;99.90;;;;;;12211060;28;20063;-80
2021/05/12 10:16:49;;;;;;;15.30;8.40;;;16.50;99.90;;;;;;12198868;29;20481;-80
2021/05/12 10:22:54;;;;;;;10.10;7.55;;;16.70;99.90;;;;;;12196773;28;20080;-80
2021/05/12 10:28:58;;;;;;;10.18;8.38;;;16.70;99.90;;;;;;12198535;28;20075;-80
2021/05/12 10:35:10;;;;;;;9.40;6.18;;;16.90;99.90;;;;;;12188806;28;20080;-81
2021/05/12 10:41:48;;;;;;;13.00;7.10;;;16.90;99.90;;;;;;12182039;28;20107;-80
2021/05/12 10:47:50;;;;;;;10.60;5.97;;;16.80;99.90;;;;;;12338070;28;20666;-81
2021/05/12 10:53:54;;;;;;;7.38;5.60;;;17.20;99.90;;;;;;12203085;28;20067;-82
2021/05/12 10:59:56;;;;;;;8.32;5.10;;;17.20;99.90;;;;;;12205658;28;20071;-80
2021/05/12 11:06:02;;;;;;;7.40;3.80;;;17.10;99.90;;;;;;12210645;28;20135;-82
2021/05/12 11:12:11;;;;;;;7.80;4.50;;;17.10;99.90;;;;;;12195538;28;20051;-81
2021/05/12 11:18:13;;;;;;;10.10;4.22;;;17.30;99.90;;;;;;12203936;28;21040;-81
2021/05/12 11:24:21;;;;;;;7.00;3.97;;;17.20;99.90;;;;;;12229074;28;20040;-80
2021/05/12 11:36:43;;;;;;;7.25;3.58;;;16.90;99.90;;;;;;12224795;28;20102;-80
2021/05/12 11:42:45;;;;;;;8.45;3.95;;;17.20;99.90;;;;;;12180246;28;20099;-81
2021/05/12 11:48:59;;;;;;;6.53;3.00;;;17.50;99.90;;;;;;12148970;28;20102;-80
2021/05/12 11:55:05;;;;;;;5.68;3.40;;;17.60;99.90;;;;;;12151329;28;20475;-80
2021/05/12 12:01:12;;;;;;;6.55;3.65;;;17.30;99.90;;;;;;12157551;29;20519;-81
2021/05/12 12:07:22;;;;;;;6.53;3.78;;;16.90;99.90;;;;;;12206138;28;20055;-80
2021/05/12 12:13:24;;;;;;;7.20;3.50;;;17.20;99.90;;;;;;12200468;28;20044;-79
2021/05/12 12:19:26;;;;;;;7.57;4.00;;;17.60;99.90;;;;;;12200883;28;20508;-80
2021/05/12 12:25:34;;;;;;;5.80;3.42;;;17.50;99.90;;;;;;12199952;28;20047;-81
2021/05/12 12:31:43;;;;;;;6.80;3.65;;;17.20;99.90;;;;;;12195205;29;20453;-80
2021/05/12 12:37:44;;;;;;;6.30;3.33;;;17.10;99.90;;;;;;12203964;28;20535;-81
2021/05/12 12:43:50;;;;;;;11.68;3.90;;;17.20;99.90;;;;;;12204197;28;20134;-80
2021/05/12 12:50:05;;;;;;;7.80;3.00;;;17.40;99.90;;;;;;12215654;29;20044;-80
2021/05/12 12:56:09;;;;;;;5.95;3.22;;;17.40;99.90;;;;;;12209456;29;20064;-80
2021/05/12 13:02:10;;;;;;;7.00;3.50;;;17.70;99.90;;;;;;12214019;29;20067;-80
2021/05/12 13:08:20;;;;;;;5.90;3.60;;;17.80;99.90;;;;;;12203008;28;20170;-80
2021/05/12 13:14:39;;;;;;;8.23;3.72;;;17.90;99.90;;;;;;12205974;28;20090;-80
2021/05/12 13:20:42;;;;;;;5.68;3.70;;;17.60;99.90;;;;;;12203808;28;20496;-80
2021/05/12 13:26:45;;;;;;;7.25;3.75;;;17.50;99.90;;;;;;12206690;28;20526;-81
2021/05/12 13:32:48;;;;;;;8.13;3.80;;;17.10;99.90;;;;;;12198332;28;20711;-80
2021/05/12 13:38:50;;;;;;;6.53;3.70;;;16.60;99.90;;;;;;12174524;28;20072;-80
2021/05/12 13:44:52;;;;;;;5.90;3.10;;;16.60;99.90;;;;;;12205087;28;20142;-80
2021/05/12 13:50:53;;;;;;;9.50;3.20;;;17.10;99.90;;;;;;12204572;28;20128;-80
2021/05/12 13:57:01;;;;;;;6.15;3.53;;;17.40;99.90;;;;;;12201663;28;20064;-80
2021/05/12 14:03:04;;;;;;;8.02;3.25;;;17.70;99.90;;;;;;12201986;28;20068;-80
2021/05/12 14:09:20;;;;;;;8.60;3.10;;;18.00;99.90;;;;;;12207934;28;20143;-80
2021/05/12 14:21:43;;;;;;;11.77;3.70;;;18.00;99.90;;;;;;12201674;28;20056;-80
2021/05/12 14:27:46;;;;;;;7.00;3.00;;;17.80;99.90;;;;;;12205412;28;20552;-80
2021/05/12 14:33:48;;;;;;;5.38;2.63;;;17.70;99.90;;;;;;12206645;28;20076;-80
2021/05/12 14:39:51;;;;;;;6.80;3.17;;;17.80;99.90;;;;;;12213678;28;20079;-80
2021/05/12 14:45:52;;;;;;;6.47;2.70;;;18.10;99.90;;;;;;12206881;28;20075;-80
2021/05/12 14:52:12;;;;;;;6.45;2.70;;;18.30;99.90;;;;;;12200969;28;20075;-80
2021/05/12 15:10:21;;;;;;;8.40;3.38;;;17.90;99.90;;;;;;12205647;28;20056;-80
2021/05/12 15:16:22;;;;;;;9.40;2.90;;;17.90;99.90;;;;;;12216089;28;20639;-80
2021/05/12 15:22:24;;;;;;;9.82;3.20;;;17.90;99.90;;;;;;12217886;28;20056;-80
2021/05/12 15:28:26;;;;;;;7.20;3.15;;;17.70;99.90;;;;;;12210220;28;20052;-80
2021/05/12 15:34:28;;;;;;;7.10;3.40;;;17.60;99.90;;;;;;12209399;28;20135;-81
2021/05/12 15:40:30;;;;;;;6.95;3.17;;;17.50;99.90;;;;;;12209381;28;20050;-80
2021/05/12 15:46:32;;;;;;;8.82;3.45;;;17.30;99.90;;;;;;12213849;28;20187;-81
2021/05/12 15:52:34;;;;;;;8.38;3.90;;;17.20;99.90;;;;;;12227739;28;20409;-80
2021/05/12 15:58:36;;;;;;;7.60;4.63;;;17.10;99.90;;;;;;12213614;28;20056;-80
2021/05/12 16:04:38;;;;;;;6.68;3.47;;;16.80;99.90;;;;;;12212062;28;20505;-80
2021/05/12 16:10:40;;;;;;;8.98;3.60;;;16.80;99.90;;;;;;12209447;28;20481;-80
2021/05/12 16:16:50;;;;;;;7.45;3.50;;;16.70;99.90;;;;;;12204331;28;20144;-80
2021/05/12 16:22:52;;;;;;;7.55;3.53;;;16.70;99.90;;;;;;12211918;28;20039;-80
2021/05/12 16:28:54;;;;;;;6.65;3.85;;;16.60;99.90;;;;;;12216076;28;20052;-81
2021/05/12 16:35:00;;;;;;;8.38;3.97;;;16.60;99.90;;;;;;12219813;28;20040;-80
2021/05/12 16:41:02;;;;;;;8.00;4.18;;;15.90;99.90;;;;;;12262148;28;20050;-81
2021/05/12 16:47:04;;;;;;;10.55;4.90;;;14.90;99.90;;;;;;12219812;28;20086;-80
2021/05/12 16:53:09;;;;;;;12.75;4.68;;;14.70;99.90;;;;;;12207702;28;20056;-80
2021/05/12 16:59:11;;;;;;;8.15;4.80;;;14.40;99.90;;;;;;12209415;28;20134;-80
2021/05/12 17:05:13;;;;;;;9.25;5.80;;;14.10;99.90;;;;;;12218505;28;20052;-80
2021/05/12 17:11:15;;;;;;;12.60;6.70;;;13.90;99.90;;;;;;12200745;28;20783;-79
2021/05/12 17:17:18;;;;;;;9.85;6.15;;;13.60;99.90;;;;;;12204602;28;20091;-80
2021/05/12 17:23:20;;;;;;;10.93;7.28;;;13.50;99.90;;;;;;12180574;28;20037;-79
2021/05/12 17:29:22;;;;;;;13.68;7.30;;;13.20;99.90;;;;;;12158569;28;20124;-79
2021/05/12 17:35:26;;;;;;;10.75;7.43;;;13.10;99.90;;;;;;12150764;29;20124;-80
2021/05/12 17:41:27;;;;;;;13.88;7.35;;;13.00;99.90;;;;;;12176168;29;20108;-79
2021/05/12 17:47:29;;;;;;;12.73;7.55;;;13.10;99.90;;;;;;12203553;28;20132;-79
2021/05/12 17:53:31;;;;;;;13.13;7.90;;;13.10;99.90;;;;;;12202089;28;20059;-79
2021/05/12 17:59:33;;;;;;;12.48;7.47;;;13.20;99.90;;;;;;12203483;28;20399;-79
2021/05/12 18:05:35;;;;;;;10.98;7.45;;;13.20;99.90;;;;;;12198742;28;20063;-79
2021/05/12 18:11:58;;;;;;;9.52;6.95;;;13.20;99.90;;;;;;12199821;28;20044;-79
2021/05/12 18:18:00;;;;;;;11.77;7.07;;;13.20;99.90;;;;;;12200546;28;20055;-80
2021/05/12 18:24:03;;;;;;;11.45;8.10;;;13.40;99.90;;;;;;12204239;28;20044;-80
2021/05/12 18:30:06;;;;;;;13.45;8.82;;;13.30;99.90;;;;;;12206641;28;20135;-80
2021/05/12 18:42:29;;;;;;;13.93;8.07;;;13.40;99.90;;;;;;12192695;28;20120;-80
2021/05/12 18:48:31;;;;;;;15.27;8.30;;;13.40;99.90;;;;;;12164454;28;20044;-80
2021/05/12 18:54:33;;;;;;;13.02;9.15;;;13.20;99.90;;;;;;12163734;29;20064;-79
2021/05/12 19:00:35;;;;;;;14.43;10.10;;;13.00;99.90;;;;;;12165552;28;20068;-80
2021/05/12 19:06:47;;;;;;;13.15;10.38;;;12.80;99.90;;;;;;12159895;29;20051;-80
2021/05/12 19:13:11;;;;;;;13.27;9.45;;;12.60;99.90;;;;;;12181429;29;20040;-80
2021/05/12 19:26:06;;;;;;;13.82;8.55;;;12.60;99.90;;;;;;12211776;28;20143;-80
2021/05/12 19:44:49;;;;;;;10.57;8.20;;;12.90;99.90;;;;;;12193663;29;20060;-79
2021/05/12 19:50:51;;;;;;;13.90;8.73;;;12.80;99.90;;;;;;12204062;28;20075;-80
2021/05/12 20:03:11;;;;;;;10.57;8.88;;;12.80;99.90;;;;;;12198782;29;20508;-80
2021/05/12 20:15:28;;;;;;;13.30;9.52;;;12.60;99.90;;;;;;12199245;29;20048;-79
2021/05/12 20:21:31;;;;;;;13.30;9.80;;;12.50;99.90;;;;;;12217259;29;20139;-79
2021/05/12 20:27:33;;;;;;;16.10;9.88;;;12.60;99.90;;;;;;12217344;29;20052;-80
2021/05/12 20:39:58;;;;;;;12.48;9.80;;;12.30;99.90;;;;;;12206442;29;20131;-79
2021/05/12 20:46:00;;;;;;;16.08;10.25;;;12.20;99.90;;;;;;12175620;28;20072;-79
2021/05/12 20:52:03;;;;;;;14.63;9.20;;;12.20;99.90;;;;;;12191396;28;20682;-79
2021/05/12 20:58:05;;;;;;;13.38;9.27;;;12.40;99.90;;;;;;12208380;28;20059;-79
2021/05/12 21:04:07;;;;;;;13.85;7.90;;;12.40;99.90;;;;;;12208045;28;20056;-79
2021/05/12 21:10:10;;;;;;;10.50;7.50;;;12.50;99.90;;;;;;12204630;28;20125;-80
2021/05/12 21:16:12;;;;;;;10.98;8.40;;;12.50;99.90;;;;;;12210426;28;20075;-80
2021/05/12 21:22:15;;;;;;;14.68;8.00;;;12.50;99.90;;;;;;12250224;28;20083;-79
2021/05/12 21:28:17;;;;;;;12.47;8.20;;;12.40;99.90;;;;;;12248802;28;20048;-79
2021/05/12 21:34:19;;;;;;;12.95;8.93;;;12.20;99.90;;;;;;12197586;28;20143;-79
2021/05/12 21:40:22;;;;;;;14.52;8.52;;;12.10;99.90;;;;;;12195329;28;20250;-79
2021/05/12 21:46:23;;;;;;;17.40;8.68;;;11.90;99.90;;;;;;12215973;28;20574;-79
2021/05/12 21:52:25;;;;;;;13.15;8.18;;;12.00;99.90;;;;;;12198954;28;20055;-79
2021/05/12 21:58:27;;;;;;;14.50;9.10;;;11.90;99.90;;;;;;12205623;28;20188;-79
2021/05/12 22:04:30;;;;;;;14.88;9.25;;;11.70;99.90;;;;;;12199568;28;20126;-79
2021/05/12 22:23:33;;;;;;;13.48;8.52;;;11.60;99.90;;;;;;12199960;28;20040;-79
2021/05/12 22:36:12;;;;;;;9.68;8.18;;;11.80;99.90;;;;;;12269559;28;20048;-79
2021/05/12 22:42:14;;;;;;;12.38;7.80;;;12.10;99.90;;;;;;12210685;28;20115;-79
2021/05/12 22:48:17;;;;;;;12.43;7.90;;;12.10;99.90;;;;;;12205414;28;20190;-79
2021/05/12 22:54:22;;;;;;;10.13;7.68;;;12.20;99.90;;;;;;12197373;28;20045;-79
2021/05/12 23:00:24;;;;;;;12.35;7.78;;;12.00;99.90;;;;;;12208917;28;20043;-79
2021/05/12 23:06:26;;;;;;;11.57;7.95;;;12.10;99.90;;;;;;12206441;28;20079;-79
2021/05/12 23:12:28;;;;;;;11.65;8.20;;;12.00;99.90;;;;;;12200066;28;20049;-79
2021/05/12 23:18:30;;;;;;;14.48;9.20;;;12.00;99.90;;;;;;12205960;28;20209;-79
2021/05/12 23:24:32;;;;;;;14.27;8.95;;;11.90;99.90;;;;;;12195328;28;20052;-79
2021/05/12 23:30:34;;;;;;;14.48;7.70;;;11.90;99.90;;;;;;12206021;28;20135;-79
2021/05/12 23:36:38;;;;;;;10.02;7.50;;;11.90;99.90;;;;;;12206087;28;20052;-79
2021/05/12 23:42:46;;;;;;;10.47;7.63;;;11.90;99.90;;;;;;12286174;28;20087;-79
2021/05/12 23:48:48;;;;;;;12.07;6.85;;;11.90;99.90;;;;;;12201157;28;20063;-79
2021/05/12 23:54:50;;;;;;;13.05;8.35;;;11.90;99.90;;;;;;12203280;28;20055;-79
